createdAt,value
2022-10-17T00:02:07.302Z,14.40
2022-10-17T00:07:02.216Z,14.53
2022-10-17T00:09:30.237Z,14.73
2022-10-17T00:11:57.295Z,14.73
2022-10-17T00:14:24.344Z,14.71
2022-10-17T00:16:51.601Z,14.68
2022-10-17T00:19:18.990Z,14.70
2022-10-17T00:21:46.152Z,14.73
2022-10-17T00:24:13.481Z,14.69
2022-10-17T00:26:40.642Z,14.57
2022-10-17T00:29:07.861Z,14.44
2022-10-17T00:31:35.672Z,14.39
2022-10-17T00:34:02.693Z,14.42
2022-10-17T00:36:31.096Z,14.36
2022-10-17T00:38:59.129Z,14.48
2022-10-17T00:41:27.933Z,14.45
2022-10-17T00:43:57.453Z,14.44
2022-10-17T00:46:26.041Z,14.43
2022-10-17T00:48:54.581Z,14.37
2022-10-17T00:51:25.124Z,14.44
2022-10-17T00:53:52.286Z,14.39
2022-10-17T00:56:20.807Z,14.39
2022-10-17T00:58:48.293Z,14.29
2022-10-17T01:01:15.639Z,14.27
2022-10-17T01:03:43.408Z,14.33
2022-10-17T01:06:10.473Z,14.37
2022-10-17T01:08:38.109Z,14.32
2022-10-17T01:11:18.373Z,14.25
2022-10-17T01:13:54.782Z,14.26
2022-10-17T01:16:27.974Z,14.22
2022-10-17T01:19:02.278Z,14.17
2022-10-17T01:21:29.436Z,14.17
2022-10-17T01:24:08.367Z,14.02
2022-10-17T01:26:48.228Z,13.92
2022-10-17T01:29:30.517Z,13.87
2022-10-17T01:32:00.775Z,13.92
2022-10-17T01:34:41.000Z,13.93
2022-10-17T01:37:19.269Z,13.90
2022-10-17T01:39:53.556Z,13.94
2022-10-17T01:42:28.244Z,13.90
2022-10-17T01:44:58.722Z,13.89
2022-10-17T01:47:28.446Z,13.85
2022-10-17T01:49:59.836Z,13.86
2022-10-17T01:52:30.743Z,13.90
2022-10-17T01:55:03.499Z,13.76
2022-10-17T01:57:35.707Z,13.75
2022-10-17T02:00:06.251Z,13.79
2022-10-17T02:02:41.192Z,13.74
2022-10-17T02:05:08.645Z,13.74
2022-10-17T02:07:35.761Z,13.68
2022-10-17T02:10:04.574Z,13.58
2022-10-17T02:12:35.785Z,13.59
2022-10-17T02:15:02.932Z,13.62
2022-10-17T02:17:46.237Z,13.62
2022-10-17T02:20:30.189Z,13.58
2022-10-17T02:23:02.808Z,13.54
2022-10-17T02:25:36.792Z,13.53
2022-10-17T02:28:13.843Z,13.58
2022-10-17T02:31:00.406Z,13.62
2022-10-17T02:33:27.553Z,13.69
2022-10-17T02:36:01.419Z,13.72
2022-10-17T02:38:30.807Z,13.77
2022-10-17T02:40:58.234Z,13.90
2022-10-17T02:43:25.496Z,13.81
2022-10-17T02:45:53.939Z,13.79
2022-10-17T02:48:28.195Z,13.77
2022-10-17T02:50:58.776Z,13.70
2022-10-17T02:53:33.308Z,13.54
2022-10-17T02:56:03.060Z,13.61
2022-10-17T02:58:34.580Z,13.60
2022-10-17T03:01:02.115Z,13.53
2022-10-17T03:03:32.637Z,13.50
2022-10-17T03:06:02.430Z,13.47
2022-10-17T03:08:29.663Z,13.41
2022-10-17T03:10:57.070Z,13.40
2022-10-17T03:13:25.822Z,13.40
2022-10-17T03:15:52.908Z,13.40
2022-10-17T03:18:20.003Z,13.41
2022-10-17T03:20:50.019Z,13.34
2022-10-17T03:23:17.344Z,13.28
2022-10-17T03:25:45.888Z,13.25
2022-10-17T03:28:14.805Z,13.26
2022-10-17T03:30:42.018Z,13.27
2022-10-17T03:33:10.432Z,13.28
2022-10-17T03:35:38.921Z,13.27
2022-10-17T03:38:07.537Z,13.23
2022-10-17T03:40:34.995Z,13.16
2022-10-17T03:43:02.288Z,13.18
2022-10-17T03:45:31.207Z,13.13
2022-10-17T03:48:00.172Z,13.09
2022-10-17T03:50:27.942Z,13.19
2022-10-17T03:52:56.146Z,13.18
2022-10-17T03:55:24.169Z,13.13
2022-10-17T03:57:51.810Z,13.13
2022-10-17T04:00:21.920Z,13.14
2022-10-17T04:02:55.809Z,13.13
2022-10-17T04:05:23.004Z,13.22
2022-10-17T04:07:50.122Z,13.20
2022-10-17T04:10:21.136Z,13.23
2022-10-17T04:12:48.351Z,13.21
2022-10-17T04:15:15.528Z,13.23
2022-10-17T04:17:43.021Z,13.10
2022-10-17T04:20:10.632Z,13.11
2022-10-17T04:22:37.887Z,13.11
2022-10-17T04:25:05.815Z,13.22
2022-10-17T04:27:45.606Z,13.17
2022-10-17T04:30:13.865Z,13.09
2022-10-17T04:32:41.539Z,13.03
2022-10-17T04:35:13.405Z,13.01
2022-10-17T04:37:45.435Z,13.02
2022-10-17T04:40:18.019Z,13.08
2022-10-17T04:42:45.831Z,13.01
2022-10-17T04:45:16.170Z,12.95
2022-10-17T04:47:44.117Z,12.96
2022-10-17T04:50:11.444Z,13.05
2022-10-17T04:52:40.381Z,13.06
2022-10-17T04:55:09.359Z,13.08
2022-10-17T04:57:36.538Z,13.04
2022-10-17T05:00:14.010Z,13.06
2022-10-17T05:03:00.278Z,13.06
2022-10-17T05:05:28.817Z,13.00
2022-10-17T05:07:56.804Z,12.97
2022-10-17T05:10:26.957Z,12.96
2022-10-17T05:12:54.864Z,13.04
2022-10-17T05:15:24.599Z,12.97
2022-10-17T05:17:55.425Z,12.93
2022-10-17T05:20:23.430Z,12.90
2022-10-17T05:22:50.586Z,12.95
2022-10-17T05:25:18.788Z,12.96
2022-10-17T05:27:46.220Z,12.94
2022-10-17T05:30:13.399Z,12.99
2022-10-17T05:32:41.292Z,12.94
2022-10-17T05:35:08.859Z,12.85
2022-10-17T05:37:37.063Z,12.90
2022-10-17T05:40:05.187Z,12.95
2022-10-17T05:42:32.657Z,13.08
2022-10-17T05:45:00.045Z,13.02
2022-10-17T05:47:27.612Z,13.03
2022-10-17T05:49:54.954Z,13.02
2022-10-17T05:52:28.077Z,13.02
2022-10-17T05:55:10.045Z,13.02
2022-10-17T05:57:37.266Z,13.00
2022-10-17T06:00:07.725Z,13.04
2022-10-17T06:02:50.640Z,13.02
2022-10-17T06:05:19.491Z,12.99
2022-10-17T06:07:47.142Z,13.02
2022-10-17T06:10:16.528Z,13.05
2022-10-17T06:12:44.466Z,13.09
2022-10-17T06:15:12.071Z,13.18
2022-10-17T06:17:41.706Z,13.23
2022-10-17T06:20:09.011Z,13.27
2022-10-17T06:22:36.112Z,13.31
2022-10-17T06:25:08.156Z,13.36
2022-10-17T06:27:35.228Z,13.39
2022-10-17T06:30:02.393Z,13.42
2022-10-17T06:32:30.695Z,13.46
2022-10-17T06:34:57.904Z,13.55
2022-10-17T06:37:25.204Z,13.56
2022-10-17T06:39:52.885Z,13.58
2022-10-17T06:42:22.469Z,13.64
2022-10-17T06:45:15.437Z,13.67
2022-10-17T06:47:52.396Z,13.73
2022-10-17T06:50:34.980Z,13.78
2022-10-17T06:53:13.380Z,13.86
2022-10-17T06:55:51.328Z,13.94
2022-10-17T06:58:25.382Z,13.98
2022-10-17T07:01:22.889Z,14.05
2022-10-17T07:03:54.654Z,14.14
2022-10-17T07:06:24.615Z,14.19
2022-10-17T07:08:52.464Z,14.23
2022-10-17T07:11:20.798Z,14.26
2022-10-17T07:13:50.304Z,14.32
2022-10-17T07:16:17.694Z,14.33
2022-10-17T07:18:51.194Z,14.35
2022-10-17T07:21:18.973Z,14.44
2022-10-17T07:23:46.067Z,14.47
2022-10-17T07:26:15.366Z,14.58
2022-10-17T07:28:44.594Z,14.64
2022-10-17T07:31:28.413Z,14.73
2022-10-17T07:33:55.469Z,14.88
2022-10-17T07:36:22.511Z,14.92
2022-10-17T07:38:50.242Z,14.97
2022-10-17T07:41:21.854Z,15.10
2022-10-17T07:43:50.760Z,15.34
2022-10-17T07:46:21.772Z,15.40
2022-10-17T07:48:49.758Z,15.55
2022-10-17T07:51:18.746Z,15.59
2022-10-17T07:53:48.744Z,15.67
2022-10-17T07:56:16.383Z,15.74
2022-10-17T07:58:43.373Z,15.88
2022-10-17T08:01:15.481Z,16.03
2022-10-17T08:03:44.086Z,16.10
2022-10-17T08:06:11.534Z,16.35
2022-10-17T08:08:38.566Z,16.49
2022-10-17T08:11:06.717Z,16.59
2022-10-17T08:13:34.249Z,16.68
2022-10-17T08:16:02.135Z,16.73
2022-10-17T08:18:29.259Z,16.92
2022-10-17T08:21:00.257Z,17.05
2022-10-17T08:23:28.072Z,17.28
2022-10-17T08:25:55.178Z,17.70
2022-10-17T08:28:22.305Z,17.82
2022-10-17T08:30:49.374Z,18.07
2022-10-17T08:33:16.458Z,18.03
2022-10-17T08:35:43.428Z,18.11
2022-10-17T08:38:12.361Z,17.89
2022-10-17T08:40:42.807Z,18.26
2022-10-17T08:43:16.014Z,18.41
2022-10-17T08:45:43.058Z,18.59
2022-10-17T08:48:12.414Z,18.74
2022-10-17T08:50:46.464Z,18.68
2022-10-17T08:53:16.515Z,18.97
2022-10-17T08:55:45.925Z,19.05
2022-10-17T08:58:14.532Z,18.94
2022-10-17T09:00:46.212Z,19.07
2022-10-17T09:03:32.119Z,18.79
2022-10-17T09:06:10.826Z,18.63
2022-10-17T09:08:44.326Z,18.97
2022-10-17T09:11:31.240Z,19.35
2022-10-17T09:14:04.730Z,19.35
2022-10-17T09:16:39.937Z,19.44
2022-10-17T09:19:12.481Z,19.74
2022-10-17T09:21:42.334Z,19.75
2022-10-17T09:24:15.875Z,19.64
2022-10-17T09:26:45.013Z,19.81
2022-10-17T09:29:25.729Z,19.77
2022-10-17T09:32:00.612Z,19.55
2022-10-17T09:34:28.475Z,19.36
2022-10-17T09:36:58.042Z,19.45
2022-10-17T09:39:26.625Z,19.88
2022-10-17T09:41:56.864Z,20.06
2022-10-17T09:44:25.620Z,19.84
2022-10-17T09:47:04.996Z,20.14
2022-10-17T09:49:36.692Z,20.13
2022-10-17T09:52:05.265Z,20.25
2022-10-17T09:54:43.508Z,20.52
2022-10-17T09:57:11.457Z,20.60
2022-10-17T09:59:42.970Z,20.79
2022-10-17T10:02:09.967Z,20.92
2022-10-17T10:04:47.039Z,21.02
2022-10-17T10:07:30.682Z,21.12
2022-10-17T10:10:00.350Z,21.32
2022-10-17T10:12:31.851Z,21.38
2022-10-17T10:14:59.796Z,21.51
2022-10-17T10:17:33.112Z,21.08
2022-10-17T10:20:00.854Z,21.26
2022-10-17T10:22:28.618Z,21.37
2022-10-17T10:25:12.940Z,21.56
2022-10-17T10:27:43.582Z,21.47
2022-10-17T10:30:30.244Z,21.61
2022-10-17T10:33:00.483Z,21.57
2022-10-17T10:35:35.097Z,21.41
2022-10-17T10:38:08.872Z,20.90
2022-10-17T10:40:48.092Z,21.35
2022-10-17T10:43:30.721Z,21.05
2022-10-17T10:45:59.299Z,20.72
2022-10-17T10:48:31.921Z,20.80
2022-10-17T10:51:04.533Z,21.11
2022-10-17T10:53:41.287Z,21.24
2022-10-17T10:56:18.392Z,21.39
2022-10-17T10:59:00.460Z,21.67
2022-10-17T11:02:05.601Z,21.94
2022-10-17T11:04:40.738Z,22.07
2022-10-17T11:07:30.663Z,21.85
2022-10-17T11:10:10.547Z,21.55
2022-10-17T11:12:46.769Z,21.50
2022-10-17T11:15:17.223Z,21.66
2022-10-17T11:17:56.858Z,21.41
2022-10-17T11:20:30.060Z,21.82
2022-10-17T11:23:21.570Z,21.83
2022-10-17T11:25:51.698Z,22.06
2022-10-17T11:28:21.854Z,21.81
2022-10-17T11:31:03.328Z,21.85
2022-10-17T11:33:57.761Z,21.84
2022-10-17T11:36:32.201Z,21.74
2022-10-17T11:39:11.410Z,21.65
2022-10-17T11:41:45.318Z,22.07
2022-10-17T11:44:39.008Z,21.88
2022-10-17T11:47:40.174Z,22.10
2022-10-17T11:54:03.088Z,22.43
2022-10-17T11:56:42.932Z,22.83
2022-10-17T11:59:30.302Z,22.62
2022-10-17T12:02:04.189Z,22.65
2022-10-17T12:04:55.205Z,22.87
2022-10-17T12:07:36.119Z,22.59
2022-10-17T12:10:03.685Z,22.45
2022-10-17T12:12:34.570Z,22.07
2022-10-17T12:15:14.180Z,22.11
2022-10-17T12:17:54.062Z,22.29
2022-10-17T12:20:21.723Z,22.40
2022-10-17T12:26:10.445Z,22.99
2022-10-17T12:28:37.814Z,23.09
2022-10-17T12:31:23.043Z,22.67
2022-10-17T12:33:57.666Z,22.33
2022-10-17T12:36:28.426Z,22.53
2022-10-17T12:39:01.953Z,22.69
2022-10-17T12:41:52.249Z,22.69
2022-10-17T12:44:22.107Z,22.82
2022-10-17T12:46:59.460Z,22.96
2022-10-17T12:49:51.978Z,22.83
2022-10-17T12:52:35.078Z,22.55
2022-10-17T12:55:13.425Z,22.29
2022-10-17T12:58:00.018Z,22.37
2022-10-17T13:01:18.982Z,22.86
2022-10-17T13:03:48.898Z,22.80
2022-10-17T13:06:22.243Z,22.53
2022-10-17T13:09:04.093Z,22.69
2022-10-17T13:11:36.171Z,22.58
2022-10-17T13:14:12.520Z,22.49
2022-10-17T13:16:51.217Z,22.65
2022-10-17T13:19:23.469Z,22.91
2022-10-17T13:22:06.777Z,22.99
2022-10-17T13:24:40.093Z,22.81
2022-10-17T13:27:24.017Z,22.88
2022-10-17T13:29:51.483Z,22.90
2022-10-17T13:32:18.957Z,22.85
2022-10-17T13:34:46.206Z,22.96
2022-10-17T13:37:15.708Z,22.77
2022-10-17T13:39:55.329Z,22.46
2022-10-17T13:42:27.695Z,22.32
2022-10-17T13:44:57.277Z,22.48
2022-10-17T13:47:32.222Z,22.65
2022-10-17T13:50:00.232Z,22.56
2022-10-17T13:52:29.968Z,22.58
2022-10-17T13:55:11.717Z,22.58
2022-10-17T13:57:42.636Z,22.61
2022-10-17T14:00:21.862Z,22.25
2022-10-17T14:02:53.368Z,22.23
2022-10-17T14:05:24.862Z,22.15
2022-10-17T14:08:23.813Z,22.25
2022-10-17T14:10:55.253Z,22.03
2022-10-17T14:13:34.664Z,22.17
2022-10-17T14:16:04.026Z,22.36
2022-10-17T14:18:37.469Z,22.17
2022-10-17T14:24:28.701Z,22.15
2022-10-17T14:26:59.576Z,22.01
2022-10-17T14:29:29.659Z,22.15
2022-10-17T14:32:04.038Z,22.07
2022-10-17T14:34:35.681Z,22.24
2022-10-17T14:37:10.125Z,22.48
2022-10-17T14:39:38.004Z,22.31
2022-10-17T14:42:05.548Z,22.19
2022-10-17T14:44:35.311Z,22.16
2022-10-17T14:47:30.724Z,22.00
2022-10-17T14:51:04.003Z,21.92
2022-10-17T14:53:31.814Z,21.78
2022-10-17T14:56:02.638Z,21.76
2022-10-17T14:58:34.176Z,21.67
2022-10-17T15:01:02.664Z,21.62
2022-10-17T15:03:31.958Z,21.53
2022-10-17T15:06:18.834Z,21.53
2022-10-17T15:08:46.197Z,21.38
2022-10-17T15:11:13.459Z,21.37
2022-10-17T15:13:45.425Z,21.48
2022-10-17T15:16:18.476Z,21.39
2022-10-17T15:18:46.074Z,21.43
2022-10-17T15:21:26.241Z,21.38
2022-10-17T15:24:02.063Z,21.33
2022-10-17T15:26:34.130Z,21.55
2022-10-17T15:29:01.865Z,21.34
2022-10-17T15:31:31.217Z,21.26
2022-10-17T15:33:58.532Z,21.19
2022-10-17T15:36:28.486Z,21.13
2022-10-17T15:38:59.181Z,21.06
2022-10-17T15:41:29.325Z,21.10
2022-10-17T15:43:57.020Z,20.89
2022-10-17T15:46:27.061Z,20.79
2022-10-17T15:48:55.602Z,20.81
2022-10-17T15:51:23.859Z,20.66
2022-10-17T15:53:51.148Z,20.69
2022-10-17T15:56:41.650Z,20.59
2022-10-17T15:59:15.362Z,20.26
2022-10-17T16:01:42.750Z,20.02
2022-10-17T16:04:14.636Z,20.12
2022-10-17T16:06:42.989Z,20.00
2022-10-17T16:09:11.450Z,19.84
2022-10-17T16:11:41.088Z,19.83
2022-10-17T16:14:12.176Z,19.45
2022-10-17T16:16:39.857Z,19.60
2022-10-17T16:19:07.090Z,19.53
2022-10-17T16:21:42.847Z,19.50
2022-10-17T16:27:58.806Z,19.56
2022-10-17T16:30:34.003Z,19.64
2022-10-17T16:33:04.645Z,19.48
2022-10-17T16:35:37.768Z,19.38
2022-10-17T16:38:06.726Z,19.28
2022-10-17T16:40:34.307Z,19.10
2022-10-17T16:43:01.577Z,18.99
2022-10-17T16:45:29.024Z,18.87
2022-10-17T16:47:56.355Z,18.67
2022-10-17T16:50:24.353Z,18.72
2022-10-17T16:52:51.673Z,18.67
2022-10-17T16:55:19.360Z,18.63
2022-10-17T16:57:49.343Z,18.58
2022-10-17T17:00:18.117Z,18.54
2022-10-17T17:02:49.532Z,18.47
2022-10-17T17:05:17.330Z,18.26
2022-10-17T17:07:47.974Z,18.30
2022-10-17T17:10:15.642Z,18.37
2022-10-17T17:12:43.001Z,18.61
2022-10-17T17:15:10.433Z,18.69
2022-10-17T17:17:55.311Z,18.71
2022-10-17T17:20:36.343Z,18.83
2022-10-17T17:23:20.599Z,18.84
2022-10-17T17:26:00.406Z,18.92
2022-10-17T17:28:28.109Z,18.82
2022-10-17T17:30:55.602Z,18.67
2022-10-17T17:33:29.730Z,18.55
2022-10-17T17:35:59.994Z,18.36
2022-10-17T17:38:32.383Z,17.94
2022-10-17T17:41:00.553Z,17.80
2022-10-17T17:43:28.498Z,17.79
2022-10-17T17:45:56.180Z,17.67
2022-10-17T17:48:23.461Z,17.61
2022-10-17T17:50:50.705Z,17.54
2022-10-17T17:53:18.430Z,17.47
2022-10-17T17:55:45.738Z,17.43
2022-10-17T17:58:13.207Z,17.49
2022-10-17T18:00:40.925Z,17.43
2022-10-17T18:03:08.297Z,17.35
2022-10-17T18:05:35.602Z,17.11
2022-10-17T18:08:04.793Z,17.03
2022-10-17T18:10:32.085Z,17.00
2022-10-17T18:12:59.255Z,16.93
2022-10-17T18:15:26.688Z,16.77
2022-10-17T18:17:53.853Z,16.74
2022-10-17T18:20:21.135Z,16.58
2022-10-17T18:22:48.410Z,16.59
2022-10-17T18:25:15.535Z,16.48
2022-10-17T18:27:42.653Z,16.34
2022-10-17T18:30:10.056Z,16.26
2022-10-17T18:32:37.125Z,16.18
2022-10-17T18:35:04.365Z,16.08
2022-10-17T18:37:31.550Z,16.06
2022-10-17T18:39:58.661Z,16.08
2022-10-17T18:42:25.856Z,16.01
2022-10-17T18:44:52.932Z,15.93
2022-10-17T18:47:20.066Z,15.93
2022-10-17T18:49:48.252Z,15.89
2022-10-17T18:52:15.322Z,15.84
2022-10-17T18:54:42.560Z,15.72
2022-10-17T18:57:09.628Z,15.70
2022-10-17T18:59:37.970Z,15.70
2022-10-17T19:02:05.147Z,15.68
2022-10-17T19:04:32.200Z,15.65
2022-10-17T19:06:59.285Z,15.60
2022-10-17T19:09:26.464Z,15.64
2022-10-17T19:11:53.500Z,15.61
2022-10-17T19:14:20.668Z,15.56
2022-10-17T19:16:48.890Z,15.46
2022-10-17T19:19:18.786Z,15.39
2022-10-17T19:21:46.105Z,15.37
2022-10-17T19:24:14.650Z,15.34
2022-10-17T19:26:42.362Z,15.33
2022-10-17T19:29:10.460Z,15.32
2022-10-17T19:31:37.655Z,15.25
2022-10-17T19:34:04.716Z,15.28
2022-10-17T19:36:33.877Z,15.17
2022-10-17T19:39:05.335Z,15.14
2022-10-17T19:41:32.721Z,15.15
2022-10-17T19:44:00.274Z,15.28
2022-10-17T19:46:27.992Z,15.24
2022-10-17T19:48:55.168Z,15.17
2022-10-17T19:51:26.316Z,15.07
2022-10-17T19:53:54.350Z,15.07
2022-10-17T19:56:22.401Z,15.04
2022-10-17T19:58:49.986Z,15.03
2022-10-17T20:01:21.672Z,15.06
2022-10-17T20:03:49.231Z,15.02
2022-10-17T20:06:16.968Z,14.97
2022-10-17T20:08:44.493Z,14.94
2022-10-17T20:11:13.291Z,14.84
2022-10-17T20:13:40.921Z,14.91
2022-10-17T20:16:08.875Z,14.96
2022-10-17T20:18:36.109Z,14.97
2022-10-17T20:21:08.030Z,14.90
2022-10-17T20:23:35.136Z,14.77
2022-10-17T20:26:13.200Z,14.81
2022-10-17T20:28:51.296Z,14.87
2022-10-17T20:31:18.714Z,14.88
2022-10-17T20:33:46.077Z,14.81
2022-10-17T20:36:14.552Z,14.74
2022-10-17T20:38:41.648Z,14.76
2022-10-17T20:41:09.555Z,14.67
2022-10-17T20:43:36.853Z,14.59
2022-10-17T20:46:22.041Z,14.60
2022-10-17T20:48:51.308Z,14.57
2022-10-17T20:51:18.653Z,14.55
2022-10-17T20:53:45.859Z,14.54
2022-10-17T20:56:20.452Z,14.52
2022-10-17T20:58:51.938Z,14.48
2022-10-17T21:01:19.205Z,14.54
2022-10-17T21:03:46.698Z,14.48
2022-10-17T21:06:14.647Z,14.46
2022-10-17T21:08:41.820Z,14.55
2022-10-17T21:11:09.951Z,14.60
2022-10-17T21:13:37.064Z,14.51
2022-10-17T21:16:05.224Z,14.51
2022-10-17T21:18:32.259Z,14.51
2022-10-17T21:21:13.512Z,14.49
2022-10-17T21:23:41.258Z,14.41
2022-10-17T21:26:09.962Z,14.43
2022-10-17T21:28:37.469Z,14.57
2022-10-17T21:31:09.013Z,14.45
2022-10-17T21:33:36.778Z,14.46
2022-10-17T21:36:03.936Z,14.38
2022-10-17T21:38:30.970Z,14.30
2022-10-17T21:40:58.099Z,14.21
2022-10-17T21:43:25.129Z,14.23
2022-10-17T21:45:52.243Z,14.17
2022-10-17T21:48:19.383Z,14.16
2022-10-17T21:50:46.730Z,14.29
2022-10-17T21:53:13.737Z,14.21
2022-10-17T21:55:40.828Z,14.19
2022-10-17T21:58:07.883Z,14.19
2022-10-17T22:00:34.891Z,14.08
2022-10-17T22:03:02.068Z,14.09
2022-10-17T22:05:30.628Z,14.11
2022-10-17T22:07:57.833Z,14.07
2022-10-17T22:10:24.886Z,14.07
2022-10-17T22:12:51.941Z,14.07
2022-10-17T22:15:18.965Z,13.95
2022-10-17T22:17:46.068Z,14.08
2022-10-17T22:20:13.022Z,14.12
2022-10-17T22:22:40.040Z,14.05
2022-10-17T22:25:07.279Z,14.01
2022-10-17T22:27:34.308Z,13.98
2022-10-17T22:30:01.328Z,13.98
2022-10-17T22:32:28.464Z,13.95
2022-10-17T22:34:55.472Z,13.92
2022-10-17T22:37:23.132Z,13.88
2022-10-17T22:39:50.195Z,13.89
2022-10-17T22:42:17.203Z,13.81
2022-10-17T22:44:46.405Z,13.83
2022-10-17T22:47:13.497Z,13.86
2022-10-17T22:49:40.458Z,13.94
2022-10-17T22:52:07.503Z,13.97
2022-10-17T22:54:34.495Z,13.85
2022-10-17T22:57:01.506Z,13.72
2022-10-17T22:59:28.485Z,13.70
2022-10-17T23:01:55.800Z,13.65
2022-10-17T23:04:22.844Z,13.68
2022-10-17T23:06:49.883Z,13.71
2022-10-17T23:09:17.072Z,13.76
2022-10-17T23:11:44.137Z,13.85
2022-10-17T23:14:11.097Z,13.77
2022-10-17T23:16:38.207Z,13.76
2022-10-17T23:19:05.160Z,13.75
2022-10-17T23:21:32.184Z,13.71
2022-10-17T23:23:59.238Z,13.64
2022-10-17T23:26:26.233Z,13.63
2022-10-17T23:28:53.909Z,13.52
2022-10-17T23:31:21.724Z,13.55
2022-10-17T23:33:49.698Z,13.44
2022-10-17T23:36:17.916Z,13.49
2022-10-17T23:38:45.689Z,13.55
2022-10-17T23:41:12.863Z,13.59
2022-10-17T23:43:39.952Z,13.58
2022-10-17T23:46:07.445Z,13.60
2022-10-17T23:48:34.802Z,13.56
2022-10-17T23:51:01.857Z,13.61
2022-10-17T23:53:28.844Z,13.62
2022-10-17T23:55:56.102Z,13.57
2022-10-17T23:58:23.110Z,13.50
